sensor_id;sensor_type;location;lat;lon;timestamp;P1;durP1;ratioP1;P2;durP2;ratioP2
4674;SDS011;2351;50.812;12.872;2022-09-20T00:00:01;1.70;;;1.60;;
4674;SDS011;2351;50.812;12.872;2022-09-20T00:02:33;3.47;;;2.37;;
4674;SDS011;2351;50.812;12.872;2022-09-20T00:05:04;4.10;;;2.53;;
4674;SDS011;2351;50.812;12.872;2022-09-20T00:07:38;4.20;;;1.40;;
4674;SDS011;2351;50.812;12.872;2022-09-20T00:10:10;4.10;;;1.70;;
4674;SDS011;2351;50.812;12.872;2022-09-20T00:12:41;4.20;;;1.80;;
4674;SDS011;2351;50.812;12.872;2022-09-20T00:15:13;3.37;;;2.07;;
4674;SDS011;2351;50.812;12.872;2022-09-20T00:17:45;3.43;;;2.20;;
4674;SDS011;2351;50.812;12.872;2022-09-20T00:20:16;4.53;;;1.80;;
4674;SDS011;2351;50.812;12.872;2022-09-20T00:22:49;5.73;;;2.07;;
4674;SDS011;2351;50.812;12.872;2022-09-20T00:25:21;3.57;;;1.73;;
4674;SDS011;2351;50.812;12.872;2022-09-20T00:27:53;2.07;;;1.60;;
4674;SDS011;2351;50.812;12.872;2022-09-20T00:30:24;2.60;;;1.57;;
4674;SDS011;2351;50.812;12.872;2022-09-20T00:32:56;4.30;;;1.70;;
4674;SDS011;2351;50.812;12.872;2022-09-20T00:35:27;1.77;;;1.40;;
4674;SDS011;2351;50.812;12.872;2022-09-20T00:38:00;3.93;;;1.70;;
4674;SDS011;2351;50.812;12.872;2022-09-20T00:40:31;2.77;;;1.10;;
4674;SDS011;2351;50.812;12.872;2022-09-20T00:43:03;3.07;;;1.50;;
4674;SDS011;2351;50.812;12.872;2022-09-20T00:45:34;4.40;;;1.40;;
4674;SDS011;2351;50.812;12.872;2022-09-20T00:48:08;1.60;;;1.50;;
4674;SDS011;2351;50.812;12.872;2022-09-20T00:50:44;1.73;;;1.63;;
4674;SDS011;2351;50.812;12.872;2022-09-20T00:53:22;6.83;;;1.70;;
4674;SDS011;2351;50.812;12.872;2022-09-20T00:55:58;6.77;;;2.70;;
4674;SDS011;2351;50.812;12.872;2022-09-20T00:58:32;7.63;;;2.70;;
4674;SDS011;2351;50.812;12.872;2022-09-20T01:01:08;8.77;;;3.60;;
4674;SDS011;2351;50.812;12.872;2022-09-20T01:03:40;18.23;;;5.37;;
4674;SDS011;2351;50.812;12.872;2022-09-20T01:06:12;11.73;;;4.13;;
4674;SDS011;2351;50.812;12.872;2022-09-20T01:08:49;6.53;;;3.00;;
4674;SDS011;2351;50.812;12.872;2022-09-20T01:11:23;10.80;;;2.90;;
4674;SDS011;2351;50.812;12.872;2022-09-20T01:13:55;8.60;;;3.03;;
4674;SDS011;2351;50.812;12.872;2022-09-20T01:16:27;4.40;;;2.63;;
4674;SDS011;2351;50.812;12.872;2022-09-20T01:19:01;10.70;;;3.00;;
4674;SDS011;2351;50.812;12.872;2022-09-20T01:21:40;5.93;;;2.50;;
4674;SDS011;2351;50.812;12.872;2022-09-20T01:24:15;5.70;;;3.17;;
4674;SDS011;2351;50.812;12.872;2022-09-20T01:26:56;9.93;;;3.70;;
4674;SDS011;2351;50.812;12.872;2022-09-20T01:29:43;9.87;;;3.50;;
4674;SDS011;2351;50.812;12.872;2022-09-20T01:32:28;8.80;;;3.43;;
4674;SDS011;2351;50.812;12.872;2022-09-20T01:35:09;10.03;;;3.20;;
4674;SDS011;2351;50.812;12.872;2022-09-20T01:37:46;8.20;;;3.03;;
4674;SDS011;2351;50.812;12.872;2022-09-20T01:40:30;5.77;;;2.40;;
4674;SDS011;2351;50.812;12.872;2022-09-20T01:43:12;18.43;;;2.50;;
4674;SDS011;2351;50.812;12.872;2022-09-20T01:45:52;6.40;;;2.43;;
4674;SDS011;2351;50.812;12.872;2022-09-20T01:48:26;3.27;;;2.10;;
4674;SDS011;2351;50.812;12.872;2022-09-20T01:51:09;5.83;;;2.63;;
4674;SDS011;2351;50.812;12.872;2022-09-20T01:54:15;3.40;;;2.33;;
4674;SDS011;2351;50.812;12.872;2022-09-20T01:57:18;2.80;;;2.37;;
4674;SDS011;2351;50.812;12.872;2022-09-20T02:00:25;8.63;;;2.70;;
4674;SDS011;2351;50.812;12.872;2022-09-20T02:03:07;2.80;;;2.10;;
4674;SDS011;2351;50.812;12.872;2022-09-20T02:06:10;5.83;;;2.20;;
4674;SDS011;2351;50.812;12.872;2022-09-20T02:09:07;4.13;;;2.63;;
4674;SDS011;2351;50.812;12.872;2022-09-20T02:12:03;11.57;;;2.60;;
4674;SDS011;2351;50.812;12.872;2022-09-20T02:14:52;6.70;;;2.37;;
4674;SDS011;2351;50.812;12.872;2022-09-20T02:17:33;15.30;;;2.23;;
4674;SDS011;2351;50.812;12.872;2022-09-20T02:20:21;5.93;;;2.40;;
4674;SDS011;2351;50.812;12.872;2022-09-20T02:23:15;5.63;;;2.33;;
4674;SDS011;2351;50.812;12.872;2022-09-20T02:26:04;6.90;;;2.90;;
4674;SDS011;2351;50.812;12.872;2022-09-20T02:28:50;4.60;;;1.77;;
4674;SDS011;2351;50.812;12.872;2022-09-20T02:31:27;8.30;;;1.93;;
4674;SDS011;2351;50.812;12.872;2022-09-20T02:37:37;2.80;;;1.80;;
4674;SDS011;2351;50.812;12.872;2022-09-20T02:40:19;3.97;;;1.97;;
4674;SDS011;2351;50.812;12.872;2022-09-20T02:43:02;2.30;;;2.00;;
4674;SDS011;2351;50.812;12.872;2022-09-20T02:45:40;9.17;;;2.13;;
4674;SDS011;2351;50.812;12.872;2022-09-20T02:48:19;1.77;;;1.50;;
4674;SDS011;2351;50.812;12.872;2022-09-20T02:50:58;7.43;;;3.90;;
4674;SDS011;2351;50.812;12.872;2022-09-20T02:53:36;1.77;;;1.67;;
4674;SDS011;2351;50.812;12.872;2022-09-20T02:56:16;3.60;;;2.03;;
4674;SDS011;2351;50.812;12.872;2022-09-20T02:58:56;4.50;;;2.07;;
4674;SDS011;2351;50.812;12.872;2022-09-20T03:01:38;5.20;;;2.10;;
4674;SDS011;2351;50.812;12.872;2022-09-20T03:04:21;2.23;;;2.00;;
4674;SDS011;2351;50.812;12.872;2022-09-20T03:07:00;3.20;;;2.50;;
4674;SDS011;2351;50.812;12.872;2022-09-20T03:09:42;2.10;;;1.53;;
4674;SDS011;2351;50.812;12.872;2022-09-20T03:12:18;4.33;;;2.47;;
4674;SDS011;2351;50.812;12.872;2022-09-20T03:15:06;7.10;;;2.50;;
4674;SDS011;2351;50.812;12.872;2022-09-20T03:17:47;6.87;;;2.43;;
4674;SDS011;2351;50.812;12.872;2022-09-20T03:20:26;3.93;;;2.00;;
4674;SDS011;2351;50.812;12.872;2022-09-20T03:23:06;6.13;;;2.20;;
4674;SDS011;2351;50.812;12.872;2022-09-20T03:25:50;1.97;;;1.87;;
4674;SDS011;2351;50.812;12.872;2022-09-20T03:28:33;4.27;;;1.70;;
4674;SDS011;2351;50.812;12.872;2022-09-20T03:31:16;3.80;;;1.63;;
4674;SDS011;2351;50.812;12.872;2022-09-20T03:33:57;2.70;;;1.47;;
4674;SDS011;2351;50.812;12.872;2022-09-20T03:36:53;9.00;;;2.17;;
4674;SDS011;2351;50.812;12.872;2022-09-20T03:39:39;5.53;;;1.77;;
4674;SDS011;2351;50.812;12.872;2022-09-20T03:42:38;2.87;;;1.90;;
4674;SDS011;2351;50.812;12.872;2022-09-20T03:45:26;1.93;;;1.67;;
4674;SDS011;2351;50.812;12.872;2022-09-20T03:48:15;5.23;;;1.70;;
4674;SDS011;2351;50.812;12.872;2022-09-20T03:51:08;6.57;;;2.20;;
4674;SDS011;2351;50.812;12.872;2022-09-20T03:53:57;3.70;;;1.60;;
4674;SDS011;2351;50.812;12.872;2022-09-20T03:56:56;4.17;;;2.20;;
4674;SDS011;2351;50.812;12.872;2022-09-20T03:59:48;6.00;;;2.57;;
4674;SDS011;2351;50.812;12.872;2022-09-20T04:05:31;4.80;;;1.97;;
4674;SDS011;2351;50.812;12.872;2022-09-20T04:08:12;3.97;;;2.23;;
4674;SDS011;2351;50.812;12.872;2022-09-20T04:11:00;2.70;;;1.77;;
4674;SDS011;2351;50.812;12.872;2022-09-20T04:13:38;4.00;;;1.67;;
4674;SDS011;2351;50.812;12.872;2022-09-20T04:16:17;2.90;;;1.47;;
4674;SDS011;2351;50.812;12.872;2022-09-20T04:18:57;3.23;;;1.60;;
4674;SDS011;2351;50.812;12.872;2022-09-20T04:21:34;4.30;;;1.70;;
4674;SDS011;2351;50.812;12.872;2022-09-20T04:24:16;3.37;;;1.50;;
4674;SDS011;2351;50.812;12.872;2022-09-20T04:26:54;5.60;;;1.80;;
4674;SDS011;2351;50.812;12.872;2022-09-20T04:29:31;6.23;;;2.30;;
4674;SDS011;2351;50.812;12.872;2022-09-20T04:32:12;5.87;;;2.17;;
4674;SDS011;2351;50.812;12.872;2022-09-20T04:34:49;6.83;;;2.33;;
4674;SDS011;2351;50.812;12.872;2022-09-20T04:37:45;6.90;;;2.40;;
4674;SDS011;2351;50.812;12.872;2022-09-20T04:40:22;10.20;;;2.50;;
4674;SDS011;2351;50.812;12.872;2022-09-20T04:49:57;10.90;;;2.10;;
4674;SDS011;2351;50.812;12.872;2022-09-20T04:55:53;5.83;;;2.73;;
4674;SDS011;2351;50.812;12.872;2022-09-20T04:58:37;8.67;;;3.23;;
4674;SDS011;2351;50.812;12.872;2022-09-20T05:11:09;15.67;;;4.00;;
4674;SDS011;2351;50.812;12.872;2022-09-20T05:14:04;6.93;;;2.70;;
4674;SDS011;2351;50.812;12.872;2022-09-20T05:16:58;8.50;;;3.97;;
4674;SDS011;2351;50.812;12.872;2022-09-20T05:19:39;8.70;;;3.77;;
4674;SDS011;2351;50.812;12.872;2022-09-20T05:25:34;9.83;;;3.00;;
4674;SDS011;2351;50.812;12.872;2022-09-20T05:28:17;13.70;;;3.43;;
4674;SDS011;2351;50.812;12.872;2022-09-20T05:30:56;6.47;;;3.17;;
4674;SDS011;2351;50.812;12.872;2022-09-20T05:33:32;5.80;;;3.47;;
4674;SDS011;2351;50.812;12.872;2022-09-20T05:36:09;9.93;;;3.27;;
4674;SDS011;2351;50.812;12.872;2022-09-20T05:38:48;7.77;;;3.10;;
4674;SDS011;2351;50.812;12.872;2022-09-20T05:41:29;5.50;;;2.97;;
4674;SDS011;2351;50.812;12.872;2022-09-20T05:44:10;13.57;;;4.10;;
4674;SDS011;2351;50.812;12.872;2022-09-20T05:46:56;12.47;;;3.70;;
4674;SDS011;2351;50.812;12.872;2022-09-20T05:49:39;6.27;;;3.50;;
4674;SDS011;2351;50.812;12.872;2022-09-20T05:52:24;10.70;;;3.30;;
4674;SDS011;2351;50.812;12.872;2022-09-20T05:55:27;11.97;;;3.40;;
4674;SDS011;2351;50.812;12.872;2022-09-20T05:58:33;13.93;;;2.90;;
4674;SDS011;2351;50.812;12.872;2022-09-20T06:01:17;7.53;;;2.90;;
4674;SDS011;2351;50.812;12.872;2022-09-20T06:03:54;13.53;;;2.80;;
4674;SDS011;2351;50.812;12.872;2022-09-20T06:06:40;10.67;;;3.23;;
4674;SDS011;2351;50.812;12.872;2022-09-20T06:09:24;6.93;;;2.93;;
4674;SDS011;2351;50.812;12.872;2022-09-20T06:12:14;11.63;;;3.90;;
4674;SDS011;2351;50.812;12.872;2022-09-20T06:17:50;16.90;;;3.97;;
4674;SDS011;2351;50.812;12.872;2022-09-20T06:20:30;6.87;;;3.20;;
4674;SDS011;2351;50.812;12.872;2022-09-20T06:23:06;10.70;;;5.60;;
4674;SDS011;2351;50.812;12.872;2022-09-20T06:25:40;8.63;;;3.43;;
4674;SDS011;2351;50.812;12.872;2022-09-20T06:28:17;18.73;;;4.83;;
4674;SDS011;2351;50.812;12.872;2022-09-20T06:30:52;11.23;;;3.53;;
4674;SDS011;2351;50.812;12.872;2022-09-20T06:33:26;8.43;;;3.30;;
4674;SDS011;2351;50.812;12.872;2022-09-20T06:36:00;9.57;;;4.50;;
4674;SDS011;2351;50.812;12.872;2022-09-20T06:38:52;13.67;;;4.43;;
4674;SDS011;2351;50.812;12.872;2022-09-20T06:41:52;8.80;;;4.03;;
4674;SDS011;2351;50.812;12.872;2022-09-20T06:44:24;10.70;;;4.67;;
4674;SDS011;2351;50.812;12.872;2022-09-20T06:46:57;12.27;;;5.77;;
4674;SDS011;2351;50.812;12.872;2022-09-20T06:49:29;9.93;;;4.33;;
4674;SDS011;2351;50.812;12.872;2022-09-20T06:52:04;11.23;;;4.67;;
4674;SDS011;2351;50.812;12.872;2022-09-20T06:54:37;8.53;;;4.70;;
4674;SDS011;2351;50.812;12.872;2022-09-20T06:57:15;14.40;;;5.60;;
4674;SDS011;2351;50.812;12.872;2022-09-20T06:59:48;11.40;;;5.53;;
4674;SDS011;2351;50.812;12.872;2022-09-20T07:02:21;9.17;;;5.30;;
4674;SDS011;2351;50.812;12.872;2022-09-20T07:04:53;17.10;;;6.23;;
4674;SDS011;2351;50.812;12.872;2022-09-20T07:07:26;14.37;;;6.80;;
4674;SDS011;2351;50.812;12.872;2022-09-20T07:09:57;12.27;;;5.70;;
4674;SDS011;2351;50.812;12.872;2022-09-20T07:12:29;14.23;;;5.93;;
4674;SDS011;2351;50.812;12.872;2022-09-20T07:15:02;14.43;;;5.27;;
4674;SDS011;2351;50.812;12.872;2022-09-20T07:17:36;11.00;;;5.40;;
4674;SDS011;2351;50.812;12.872;2022-09-20T07:20:08;11.83;;;6.07;;
4674;SDS011;2351;50.812;12.872;2022-09-20T07:22:40;13.10;;;5.50;;
4674;SDS011;2351;50.812;12.872;2022-09-20T07:25:11;8.43;;;5.10;;
4674;SDS011;2351;50.812;12.872;2022-09-20T07:27:43;8.83;;;4.47;;
4674;SDS011;2351;50.812;12.872;2022-09-20T07:30:16;17.50;;;5.00;;
4674;SDS011;2351;50.812;12.872;2022-09-20T07:32:50;7.60;;;4.80;;
4674;SDS011;2351;50.812;12.872;2022-09-20T07:35:22;11.70;;;5.17;;
4674;SDS011;2351;50.812;12.872;2022-09-20T07:37:57;11.63;;;4.63;;
4674;SDS011;2351;50.812;12.872;2022-09-20T07:40:28;7.90;;;3.57;;
4674;SDS011;2351;50.812;12.872;2022-09-20T07:43:01;9.10;;;3.53;;
4674;SDS011;2351;50.812;12.872;2022-09-20T07:45:32;6.87;;;3.70;;
4674;SDS011;2351;50.812;12.872;2022-09-20T07:48:08;5.43;;;3.80;;
4674;SDS011;2351;50.812;12.872;2022-09-20T07:50:40;5.30;;;3.30;;
4674;SDS011;2351;50.812;12.872;2022-09-20T07:53:20;8.97;;;3.40;;
4674;SDS011;2351;50.812;12.872;2022-09-20T07:55:56;7.00;;;3.90;;
4674;SDS011;2351;50.812;12.872;2022-09-20T07:58:29;5.70;;;3.57;;
4674;SDS011;2351;50.812;12.872;2022-09-20T08:01:04;5.40;;;3.77;;
4674;SDS011;2351;50.812;12.872;2022-09-20T08:03:38;9.30;;;4.37;;
4674;SDS011;2351;50.812;12.872;2022-09-20T08:06:11;8.63;;;4.10;;
4674;SDS011;2351;50.812;12.872;2022-09-20T08:08:45;14.53;;;4.20;;
4674;SDS011;2351;50.812;12.872;2022-09-20T08:11:19;9.63;;;4.37;;
4674;SDS011;2351;50.812;12.872;2022-09-20T08:13:54;10.70;;;4.70;;
4674;SDS011;2351;50.812;12.872;2022-09-20T08:16:28;22.83;;;4.47;;
4674;SDS011;2351;50.812;12.872;2022-09-20T08:19:02;9.90;;;4.07;;
4674;SDS011;2351;50.812;12.872;2022-09-20T08:21:33;13.73;;;4.33;;
4674;SDS011;2351;50.812;12.872;2022-09-20T08:24:07;7.00;;;3.70;;
4674;SDS011;2351;50.812;12.872;2022-09-20T08:26:38;10.30;;;5.90;;
4674;SDS011;2351;50.812;12.872;2022-09-20T08:29:10;10.30;;;4.20;;
4674;SDS011;2351;50.812;12.872;2022-09-20T08:31:44;10.73;;;3.87;;
4674;SDS011;2351;50.812;12.872;2022-09-20T08:34:17;9.17;;;4.13;;
4674;SDS011;2351;50.812;12.872;2022-09-20T08:36:49;7.90;;;3.73;;
4674;SDS011;2351;50.812;12.872;2022-09-20T08:39:21;17.97;;;4.10;;
4674;SDS011;2351;50.812;12.872;2022-09-20T08:41:54;9.30;;;5.50;;
4674;SDS011;2351;50.812;12.872;2022-09-20T08:44:31;14.30;;;4.90;;
4674;SDS011;2351;50.812;12.872;2022-09-20T08:47:06;7.90;;;4.50;;
4674;SDS011;2351;50.812;12.872;2022-09-20T08:49:48;8.53;;;4.90;;
4674;SDS011;2351;50.812;12.872;2022-09-20T08:52:22;23.70;;;6.13;;
4674;SDS011;2351;50.812;12.872;2022-09-20T08:54:59;9.10;;;5.27;;
4674;SDS011;2351;50.812;12.872;2022-09-20T08:57:31;14.83;;;6.57;;
4674;SDS011;2351;50.812;12.872;2022-09-20T09:00:04;12.67;;;5.03;;
4674;SDS011;2351;50.812;12.872;2022-09-20T09:02:37;8.50;;;4.40;;
4674;SDS011;2351;50.812;12.872;2022-09-20T09:05:12;10.50;;;6.10;;
4674;SDS011;2351;50.812;12.872;2022-09-20T09:08:02;11.30;;;5.53;;
4674;SDS011;2351;50.812;12.872;2022-09-20T09:10:36;9.00;;;5.30;;
4674;SDS011;2351;50.812;12.872;2022-09-20T09:13:14;15.93;;;6.03;;
4674;SDS011;2351;50.812;12.872;2022-09-20T09:15:53;12.70;;;6.90;;
4674;SDS011;2351;50.812;12.872;2022-09-20T09:18:30;11.30;;;5.50;;
4674;SDS011;2351;50.812;12.872;2022-09-20T09:21:06;20.40;;;6.30;;
4674;SDS011;2351;50.812;12.872;2022-09-20T09:23:43;12.90;;;5.63;;
4674;SDS011;2351;50.812;12.872;2022-09-20T09:26:20;12.17;;;5.47;;
4674;SDS011;2351;50.812;12.872;2022-09-20T09:29:06;18.13;;;6.73;;
4674;SDS011;2351;50.812;12.872;2022-09-20T09:31:40;12.33;;;5.47;;
4674;SDS011;2351;50.812;12.872;2022-09-20T09:34:24;10.60;;;6.10;;
4674;SDS011;2351;50.812;12.872;2022-09-20T09:36:57;13.90;;;5.07;;
4674;SDS011;2351;50.812;12.872;2022-09-20T09:39:30;11.33;;;5.97;;
4674;SDS011;2351;50.812;12.872;2022-09-20T09:42:12;14.13;;;6.20;;
4674;SDS011;2351;50.812;12.872;2022-09-20T09:44:50;14.13;;;7.20;;
4674;SDS011;2351;50.812;12.872;2022-09-20T09:47:22;18.60;;;8.13;;
4674;SDS011;2351;50.812;12.872;2022-09-20T09:49:58;20.20;;;6.93;;
4674;SDS011;2351;50.812;12.872;2022-09-20T09:52:31;17.10;;;6.80;;
4674;SDS011;2351;50.812;12.872;2022-09-20T09:55:04;13.33;;;6.33;;
4674;SDS011;2351;50.812;12.872;2022-09-20T09:57:39;15.47;;;7.07;;
4674;SDS011;2351;50.812;12.872;2022-09-20T10:00:23;19.43;;;7.30;;
4674;SDS011;2351;50.812;12.872;2022-09-20T10:03:02;18.27;;;6.73;;
4674;SDS011;2351;50.812;12.872;2022-09-20T10:05:46;14.90;;;6.10;;
4674;SDS011;2351;50.812;12.872;2022-09-20T10:08:37;15.10;;;7.07;;
4674;SDS011;2351;50.812;12.872;2022-09-20T10:11:19;17.60;;;5.70;;
4674;SDS011;2351;50.812;12.872;2022-09-20T10:14:01;10.33;;;5.97;;
4674;SDS011;2351;50.812;12.872;2022-09-20T10:16:46;10.93;;;6.07;;
4674;SDS011;2351;50.812;12.872;2022-09-20T10:19:34;16.77;;;7.10;;
4674;SDS011;2351;50.812;12.872;2022-09-20T10:22:17;14.13;;;5.73;;
4674;SDS011;2351;50.812;12.872;2022-09-20T10:25:00;11.13;;;5.97;;
4674;SDS011;2351;50.812;12.872;2022-09-20T10:27:50;12.87;;;5.67;;
4674;SDS011;2351;50.812;12.872;2022-09-20T10:30:33;13.70;;;6.27;;
4674;SDS011;2351;50.812;12.872;2022-09-20T10:33:17;12.23;;;6.03;;
4674;SDS011;2351;50.812;12.872;2022-09-20T10:35:59;10.10;;;4.30;;
4674;SDS011;2351;50.812;12.872;2022-09-20T10:38:41;7.53;;;4.40;;
4674;SDS011;2351;50.812;12.872;2022-09-20T10:41:27;12.20;;;4.30;;
4674;SDS011;2351;50.812;12.872;2022-09-20T10:44:38;6.43;;;4.50;;
4674;SDS011;2351;50.812;12.872;2022-09-20T10:47:17;7.40;;;3.60;;
4674;SDS011;2351;50.812;12.872;2022-09-20T10:49:52;13.40;;;5.30;;
4674;SDS011;2351;50.812;12.872;2022-09-20T10:52:40;6.10;;;3.43;;
4674;SDS011;2351;50.812;12.872;2022-09-20T10:55:33;10.77;;;3.70;;
4674;SDS011;2351;50.812;12.872;2022-09-20T11:01:11;9.27;;;4.07;;
4674;SDS011;2351;50.812;12.872;2022-09-20T11:03:57;14.20;;;4.10;;
4674;SDS011;2351;50.812;12.872;2022-09-20T11:06:43;6.43;;;3.77;;
4674;SDS011;2351;50.812;12.872;2022-09-20T11:09:22;3.67;;;3.30;;
4674;SDS011;2351;50.812;12.872;2022-09-20T11:11:58;9.87;;;2.70;;
4674;SDS011;2351;50.812;12.872;2022-09-20T11:14:41;3.53;;;2.93;;
4674;SDS011;2351;50.812;12.872;2022-09-20T11:17:18;5.60;;;2.73;;
4674;SDS011;2351;50.812;12.872;2022-09-20T11:19:56;4.20;;;3.20;;
4674;SDS011;2351;50.812;12.872;2022-09-20T11:22:33;6.93;;;3.83;;
4674;SDS011;2351;50.812;12.872;2022-09-20T11:25:11;6.63;;;3.50;;
4674;SDS011;2351;50.812;12.872;2022-09-20T11:27:48;14.27;;;4.27;;
4674;SDS011;2351;50.812;12.872;2022-09-20T11:30:26;5.60;;;3.07;;
4674;SDS011;2351;50.812;12.872;2022-09-20T11:33:01;8.50;;;3.13;;
4674;SDS011;2351;50.812;12.872;2022-09-20T11:35:45;6.60;;;2.93;;
4674;SDS011;2351;50.812;12.872;2022-09-20T11:38:20;4.50;;;2.50;;
4674;SDS011;2351;50.812;12.872;2022-09-20T11:40:56;6.53;;;2.93;;
4674;SDS011;2351;50.812;12.872;2022-09-20T11:43:32;4.60;;;2.93;;
4674;SDS011;2351;50.812;12.872;2022-09-20T11:46:10;4.47;;;2.47;;
4674;SDS011;2351;50.812;12.872;2022-09-20T11:48:44;2.47;;;1.60;;
4674;SDS011;2351;50.812;12.872;2022-09-20T11:51:24;2.00;;;0.83;;
4674;SDS011;2351;50.812;12.872;2022-09-20T11:54:13;1.03;;;0.90;;
4674;SDS011;2351;50.812;12.872;2022-09-20T11:56:58;1.10;;;0.70;;
4674;SDS011;2351;50.812;12.872;2022-09-20T11:59:32;0.90;;;0.90;;
4674;SDS011;2351;50.812;12.872;2022-09-20T12:02:14;0.77;;;0.77;;
4674;SDS011;2351;50.812;12.872;2022-09-20T12:04:51;0.60;;;0.40;;
4674;SDS011;2351;50.812;12.872;2022-09-20T12:07:24;1.17;;;1.07;;
4674;SDS011;2351;50.812;12.872;2022-09-20T12:09:58;0.97;;;0.63;;
4674;SDS011;2351;50.812;12.872;2022-09-20T12:12:35;0.60;;;0.50;;
4674;SDS011;2351;50.812;12.872;2022-09-20T12:15:21;1.80;;;0.83;;
4674;SDS011;2351;50.812;12.872;2022-09-20T12:18:12;3.13;;;0.83;;
4674;SDS011;2351;50.812;12.872;2022-09-20T12:21:06;0.87;;;0.87;;
4674;SDS011;2351;50.812;12.872;2022-09-20T12:23:43;2.93;;;1.17;;
4674;SDS011;2351;50.812;12.872;2022-09-20T12:26:43;1.80;;;1.23;;
4674;SDS011;2351;50.812;12.872;2022-09-20T12:32:39;6.30;;;1.10;;
4674;SDS011;2351;50.812;12.872;2022-09-20T12:38:35;2.83;;;0.90;;
4674;SDS011;2351;50.812;12.872;2022-09-20T12:41:10;2.47;;;1.37;;
4674;SDS011;2351;50.812;12.872;2022-09-20T12:43:48;2.90;;;1.87;;
4674;SDS011;2351;50.812;12.872;2022-09-20T12:46:30;2.87;;;1.60;;
4674;SDS011;2351;50.812;12.872;2022-09-20T12:52:37;3.63;;;2.00;;
4674;SDS011;2351;50.812;12.872;2022-09-20T12:58:22;6.00;;;2.67;;
4674;SDS011;2351;50.812;12.872;2022-09-20T13:07:31;4.37;;;2.20;;
4674;SDS011;2351;50.812;12.872;2022-09-20T13:10:14;3.37;;;2.20;;
4674;SDS011;2351;50.812;12.872;2022-09-20T13:12:54;2.17;;;1.70;;
4674;SDS011;2351;50.812;12.872;2022-09-20T13:15:30;2.13;;;1.60;;
4674;SDS011;2351;50.812;12.872;2022-09-20T13:18:04;3.97;;;1.80;;
4674;SDS011;2351;50.812;12.872;2022-09-20T13:20:37;2.47;;;1.87;;
4674;SDS011;2351;50.812;12.872;2022-09-20T13:23:14;3.63;;;1.87;;
4674;SDS011;2351;50.812;12.872;2022-09-20T13:25:50;3.10;;;1.70;;
4674;SDS011;2351;50.812;12.872;2022-09-20T13:28:33;6.33;;;3.33;;
4674;SDS011;2351;50.812;12.872;2022-09-20T13:31:23;4.30;;;3.20;;
4674;SDS011;2351;50.812;12.872;2022-09-20T13:34:11;4.57;;;2.20;;
4674;SDS011;2351;50.812;12.872;2022-09-20T13:36:43;8.40;;;2.80;;
4674;SDS011;2351;50.812;12.872;2022-09-20T13:39:21;3.50;;;1.67;;
4674;SDS011;2351;50.812;12.872;2022-09-20T13:41:59;3.60;;;1.80;;
4674;SDS011;2351;50.812;12.872;2022-09-20T13:44:37;4.60;;;1.60;;
4674;SDS011;2351;50.812;12.872;2022-09-20T13:47:19;3.60;;;1.70;;
4674;SDS011;2351;50.812;12.872;2022-09-20T13:49:58;5.27;;;1.60;;
4674;SDS011;2351;50.812;12.872;2022-09-20T13:52:31;3.60;;;1.07;;
4674;SDS011;2351;50.812;12.872;2022-09-20T13:55:17;1.50;;;1.40;;
4674;SDS011;2351;50.812;12.872;2022-09-20T13:57:51;2.20;;;1.23;;
4674;SDS011;2351;50.812;12.872;2022-09-20T14:00:26;1.17;;;0.90;;
4674;SDS011;2351;50.812;12.872;2022-09-20T14:02:58;3.80;;;1.13;;
4674;SDS011;2351;50.812;12.872;2022-09-20T14:05:30;5.00;;;1.43;;
4674;SDS011;2351;50.812;12.872;2022-09-20T14:08:02;1.30;;;1.20;;
4674;SDS011;2351;50.812;12.872;2022-09-20T14:10:37;1.77;;;1.00;;
4674;SDS011;2351;50.812;12.872;2022-09-20T14:13:13;1.50;;;1.40;;
4674;SDS011;2351;50.812;12.872;2022-09-20T14:15:48;1.83;;;1.10;;
4674;SDS011;2351;50.812;12.872;2022-09-20T14:18:19;2.13;;;1.37;;
4674;SDS011;2351;50.812;12.872;2022-09-20T14:20:53;1.37;;;1.23;;
4674;SDS011;2351;50.812;12.872;2022-09-20T14:23:26;1.67;;;1.20;;
4674;SDS011;2351;50.812;12.872;2022-09-20T14:26:06;4.13;;;1.37;;
4674;SDS011;2351;50.812;12.872;2022-09-20T14:28:52;1.20;;;1.10;;
4674;SDS011;2351;50.812;12.872;2022-09-20T14:31:26;1.37;;;1.27;;
4674;SDS011;2351;50.812;12.872;2022-09-20T14:34:00;1.20;;;1.13;;
4674;SDS011;2351;50.812;12.872;2022-09-20T14:36:33;2.00;;;1.03;;
4674;SDS011;2351;50.812;12.872;2022-09-20T14:39:09;1.63;;;1.20;;
4674;SDS011;2351;50.812;12.872;2022-09-20T14:41:45;5.70;;;1.30;;
4674;SDS011;2351;50.812;12.872;2022-09-20T14:44:19;2.00;;;1.07;;
4674;SDS011;2351;50.812;12.872;2022-09-20T14:46:57;1.20;;;0.87;;
4674;SDS011;2351;50.812;12.872;2022-09-20T14:49:30;5.87;;;1.73;;
4674;SDS011;2351;50.812;12.872;2022-09-20T14:55:15;1.83;;;1.23;;
4674;SDS011;2351;50.812;12.872;2022-09-20T14:57:50;2.40;;;1.30;;
4674;SDS011;2351;50.812;12.872;2022-09-20T15:00:22;1.97;;;0.93;;
4674;SDS011;2351;50.812;12.872;2022-09-20T15:03:00;1.57;;;1.20;;
4674;SDS011;2351;50.812;12.872;2022-09-20T15:05:35;2.40;;;1.17;;
4674;SDS011;2351;50.812;12.872;2022-09-20T15:08:07;2.27;;;1.60;;
4674;SDS011;2351;50.812;12.872;2022-09-20T15:10:42;3.50;;;2.00;;
4674;SDS011;2351;50.812;12.872;2022-09-20T15:13:14;3.03;;;1.70;;
4674;SDS011;2351;50.812;12.872;2022-09-20T15:15:46;2.43;;;1.27;;
4674;SDS011;2351;50.812;12.872;2022-09-20T15:18:22;1.10;;;0.97;;
4674;SDS011;2351;50.812;12.872;2022-09-20T15:20:56;2.93;;;1.57;;
4674;SDS011;2351;50.812;12.872;2022-09-20T15:23:27;2.77;;;1.30;;
4674;SDS011;2351;50.812;12.872;2022-09-20T15:25:59;2.80;;;1.33;;
4674;SDS011;2351;50.812;12.872;2022-09-20T15:28:32;2.17;;;1.30;;
4674;SDS011;2351;50.812;12.872;2022-09-20T15:31:04;4.70;;;1.20;;
4674;SDS011;2351;50.812;12.872;2022-09-20T15:33:37;2.17;;;1.80;;
4674;SDS011;2351;50.812;12.872;2022-09-20T15:36:08;2.80;;;1.50;;
4674;SDS011;2351;50.812;12.872;2022-09-20T15:38:40;1.63;;;1.50;;
4674;SDS011;2351;50.812;12.872;2022-09-20T15:41:12;4.33;;;1.10;;
4674;SDS011;2351;50.812;12.872;2022-09-20T15:43:43;7.83;;;2.23;;
4674;SDS011;2351;50.812;12.872;2022-09-20T15:46:16;2.57;;;1.23;;
4674;SDS011;2351;50.812;12.872;2022-09-20T15:48:51;3.80;;;1.87;;
4674;SDS011;2351;50.812;12.872;2022-09-20T15:51:22;1.93;;;1.50;;
4674;SDS011;2351;50.812;12.872;2022-09-20T15:53:55;4.80;;;2.07;;
4674;SDS011;2351;50.812;12.872;2022-09-20T15:56:28;7.57;;;1.93;;
4674;SDS011;2351;50.812;12.872;2022-09-20T15:59:01;2.87;;;1.87;;
4674;SDS011;2351;50.812;12.872;2022-09-20T16:01:35;2.70;;;1.73;;
4674;SDS011;2351;50.812;12.872;2022-09-20T16:04:10;1.77;;;1.33;;
4674;SDS011;2351;50.812;12.872;2022-09-20T16:06:43;2.50;;;1.53;;
4674;SDS011;2351;50.812;12.872;2022-09-20T16:09:17;3.00;;;1.80;;
4674;SDS011;2351;50.812;12.872;2022-09-20T16:11:49;2.30;;;1.70;;
4674;SDS011;2351;50.812;12.872;2022-09-20T16:14:20;2.70;;;2.30;;
4674;SDS011;2351;50.812;12.872;2022-09-20T16:16:52;4.07;;;2.50;;
4674;SDS011;2351;50.812;12.872;2022-09-20T16:19:25;3.23;;;1.43;;
4674;SDS011;2351;50.812;12.872;2022-09-20T16:21:55;7.80;;;1.40;;
4674;SDS011;2351;50.812;12.872;2022-09-20T16:24:28;2.00;;;1.57;;
4674;SDS011;2351;50.812;12.872;2022-09-20T16:27:03;1.67;;;1.10;;
4674;SDS011;2351;50.812;12.872;2022-09-20T16:29:36;1.20;;;1.03;;
4674;SDS011;2351;50.812;12.872;2022-09-20T16:32:08;1.60;;;1.10;;
4674;SDS011;2351;50.812;12.872;2022-09-20T16:34:41;1.10;;;1.00;;
4674;SDS011;2351;50.812;12.872;2022-09-20T16:37:13;1.43;;;1.13;;
4674;SDS011;2351;50.812;12.872;2022-09-20T16:39:45;9.23;;;3.40;;
4674;SDS011;2351;50.812;12.872;2022-09-20T16:42:17;12.13;;;7.03;;
4674;SDS011;2351;50.812;12.872;2022-09-20T16:44:49;8.80;;;6.10;;
4674;SDS011;2351;50.812;12.872;2022-09-20T16:47:21;7.33;;;4.90;;
4674;SDS011;2351;50.812;12.872;2022-09-20T16:49:55;5.53;;;3.23;;
4674;SDS011;2351;50.812;12.872;2022-09-20T16:52:27;2.13;;;1.20;;
4674;SDS011;2351;50.812;12.872;2022-09-20T16:54:58;7.60;;;2.13;;
4674;SDS011;2351;50.812;12.872;2022-09-20T16:57:34;4.50;;;2.40;;
4674;SDS011;2351;50.812;12.872;2022-09-20T17:00:07;8.03;;;3.33;;
4674;SDS011;2351;50.812;12.872;2022-09-20T17:02:41;8.50;;;2.97;;